Time;durP1;ratioP1;P1;durP2;ratioP2;P2;SDS_P1;SDS_P2;PMS_P1;PMS_P2;Temp;Humidity;BMP_temperature;BMP_pressure;BME280_temperature;BME280_humidity;BME280_pressure;Samples;Min_cycle;Max_cycle;Signal;HPM_P1;HPM_P2
2022/11/09 00:02:11;;;;;;;;;;;;;;;13.23;54.04;100293.97;4959167;28;117669;-66
2022/11/09 00:04:37;;;;;;;;;;;;;;;13.22;54.06;100293.16;4958870;28;127683;-66
2022/11/09 00:07:03;;;;;;;;;;;;;;;13.22;54.04;100292.34;4960207;28;98297;-65
2022/11/09 00:09:29;;;;;;;;;;;;;;;13.22;54.32;100290.44;4959317;28;127663;-65
2022/11/09 00:11:55;;;;;;;;;;;;;;;13.21;54.28;100299.66;4958256;28;117465;-66
2022/11/09 00:14:21;;;;;;;;;;;;;;;13.21;54.21;100296.16;4954157;28;128023;-65
2022/11/09 00:16:47;;;;;;;;;;;;;;;13.21;54.19;100298.88;4958300;28;128229;-66
2022/11/09 00:19:13;;;;;;;;;;;;;;;13.20;54.08;100302.63;4959404;28;127474;-65
2022/11/09 00:21:39;;;;;;;;;;;;;;;13.19;54.09;100292.91;4959348;28;97816;-66
2022/11/09 00:24:05;;;;;;;;;;;;;;;13.19;54.45;100301.84;4960015;28;126652;-65
2022/11/09 00:26:31;;;;;;;;;;;;;;;13.18;54.03;100300.22;4956085;28;128461;-65
2022/11/09 00:28:56;;;;;;;;;;;;;;;13.19;54.14;100301.03;4959582;28;125493;-65
2022/11/09 00:31:23;;;;;;;;;;;;;;;13.17;54.29;100298.63;4961130;28;116994;-66
2022/11/09 00:33:53;;;;;;;;;;;;;;;13.17;54.38;100297.84;4960549;28;125598;-66
2022/11/09 00:36:19;;;;;;;;;;;;;;;13.16;54.45;100298.91;4955716;28;108668;-66
2022/11/09 00:38:51;;;;;;;;;;;;;;;13.15;54.05;100297.28;4959923;28;104369;-66
2022/11/09 00:41:17;;;;;;;;;;;;;;;13.15;54.28;100297.28;4960061;28;115242;-65
2022/11/09 00:43:43;;;;;;;;;;;;;;;13.13;54.37;100303.00;4958423;28;128159;-66
2022/11/09 00:46:08;;;;;;;;;;;;;;;13.12;54.23;100292.44;4957064;28;98274;-65
2022/11/09 00:48:34;;;;;;;;;;;;;;;13.12;54.35;100292.44;4959006;28;126369;-65
2022/11/09 00:51:00;;;;;;;;;;;;;;;13.11;54.09;100298.97;4957234;28;118347;-66
2022/11/09 00:53:26;;;;;;;;;;;;;;;13.10;54.27;100300.06;4959656;28;118587;-65
2022/11/09 00:56:03;;;;;;;;;;;;;;;13.08;54.34;100297.63;4961749;28;128879;-65
2022/11/09 00:58:31;;;;;;;;;;;;;;;13.07;54.15;100296.03;4958767;28;98433;-64
2022/11/09 01:00:57;;;;;;;;;;;;;;;13.07;54.05;100300.63;4958566;28;98824;-65
2022/11/09 01:03:23;;;;;;;;;;;;;;;13.07;54.23;100297.94;4958886;28;130132;-66
2022/11/09 01:05:49;;;;;;;;;;;;;;;13.06;54.42;100296.31;4960325;28;98751;-65
2022/11/09 01:08:15;;;;;;;;;;;;;;;13.05;54.39;100297.41;4961537;28;99066;-65
2022/11/09 01:10:42;;;;;;;;;;;;;;;13.05;54.48;100300.94;4963323;28;115590;-65
2022/11/09 01:13:09;;;;;;;;;;;;;;;13.03;54.19;100298.50;4960624;28;98637;-65
2022/11/09 01:15:42;;;;;;;;;;;;;;;13.02;54.34;100301.50;4957740;28;98421;-65
2022/11/09 01:18:08;;;;;;;;;;;;;;;13.02;54.27;100296.09;4963291;28;108479;-66
2022/11/09 01:20:37;;;;;;;;;;;;;;;13.02;54.15;100287.97;4962034;28;101667;-65
2022/11/09 01:23:02;;;;;;;;;;;;;;;13.01;54.42;100298.00;4956732;28;123070;-66
2022/11/09 01:25:28;;;;;;;;;;;;;;;13.02;54.27;100296.91;4960380;28;128942;-65
2022/11/09 01:27:54;;;;;;;;;;;;;;;12.99;54.11;100294.75;4959618;28;126988;-65
2022/11/09 01:30:20;;;;;;;;;;;;;;;12.99;54.49;100297.47;4961285;28;98465;-64
2022/11/09 01:32:46;;;;;;;;;;;;;;;13.00;54.29;100293.66;4956374;28;127045;-66
2022/11/09 01:35:12;;;;;;;;;;;;;;;13.00;54.13;100293.66;4963559;28;128108;-66
2022/11/09 01:37:38;;;;;;;;;;;;;;;12.99;54.13;100285.84;4960514;28;128206;-66
2022/11/09 01:40:04;;;;;;;;;;;;;;;12.99;54.26;100291.25;4965543;28;117280;-65
2022/11/09 01:42:33;;;;;;;;;;;;;;;13.00;54.40;100285.53;4953610;28;127834;-65
2022/11/09 01:45:21;;;;;;;;;;;;;;;12.99;54.27;100285.84;4961677;28;127595;-66
2022/11/09 01:48:05;;;;;;;;;;;;;;;12.98;54.35;100293.16;4960603;28;97807;-65
2022/11/09 01:51:01;;;;;;;;;;;;;;;12.98;54.25;100284.22;4960693;28;117603;-66
2022/11/09 01:53:31;;;;;;;;;;;;;;;12.97;54.48;100288.84;4957795;28;127969;-64
2022/11/09 01:56:01;;;;;;;;;;;;;;;12.97;54.41;100296.16;4941438;28;127116;-66
2022/11/09 01:58:32;;;;;;;;;;;;;;;12.96;54.32;100292.63;4960747;28;98135;-66
2022/11/09 02:00:58;;;;;;;;;;;;;;;12.95;54.53;100290.22;4979127;27;115023;-66
2022/11/09 02:03:34;;;;;;;;;;;;;;;12.95;54.54;100285.59;4963638;28;126767;-65
2022/11/09 02:06:00;;;;;;;;;;;;;;;12.94;54.40;100286.72;4958388;28;130293;-66
2022/11/09 02:08:26;;;;;;;;;;;;;;;12.93;54.23;100282.41;4959433;28;125775;-66
2022/11/09 02:10:54;;;;;;;;;;;;;;;12.93;54.55;100281.56;4959366;28;118291;-66
2022/11/09 02:13:21;;;;;;;;;;;;;;;12.91;54.19;100287.28;4965321;28;97920;-66
2022/11/09 02:15:48;;;;;;;;;;;;;;;12.91;54.33;100278.34;4965590;28;98360;-66
2022/11/09 02:18:14;;;;;;;;;;;;;;;12.90;54.17;100280.25;4958812;28;120843;-67
2022/11/09 02:20:47;;;;;;;;;;;;;;;12.91;54.50;100283.75;4959703;28;117743;-65
2022/11/09 02:23:13;;;;;;;;;;;;;;;12.89;54.13;100273.25;4957157;28;123353;-65
2022/11/09 02:25:39;;;;;;;;;;;;;;;12.88;54.23;100279.72;4956121;28;128034;-65
2022/11/09 02:28:05;;;;;;;;;;;;;;;12.87;54.28;100278.13;4959510;28;127652;-65
2022/11/09 02:30:32;;;;;;;;;;;;;;;12.87;54.42;100271.91;4958455;28;118109;-66
2022/11/09 02:32:58;;;;;;;;;;;;;;;12.86;53.99;100270.31;4954074;28;126865;-66
2022/11/09 02:35:23;;;;;;;;;;;;;;;12.85;54.27;100268.66;4960502;28;127497;-66
2022/11/09 02:37:49;;;;;;;;;;;;;;;12.84;54.35;100267.88;4960225;28;127701;-65
2022/11/09 02:40:28;;;;;;;;;;;;;;;12.83;54.41;100271.66;4959358;28;117899;-65
2022/11/09 02:42:54;;;;;;;;;;;;;;;12.82;54.21;100270.06;4960907;28;98623;-66
2022/11/09 02:45:20;;;;;;;;;;;;;;;12.82;54.40;100271.97;4958486;28;125298;-66
2022/11/09 02:47:46;;;;;;;;;;;;;;;12.81;54.30;100267.63;4959644;28;127807;-66
2022/11/09 02:50:12;;;;;;;;;;;;;;;12.81;54.50;100273.03;4960382;28;117515;-66
2022/11/09 02:52:38;;;;;;;;;;;;;;;12.80;54.46;100279.56;4956777;28;127238;-66
2022/11/09 02:55:04;;;;;;;;;;;;;;;12.78;54.41;100271.72;4959320;28;98519;-66
2022/11/09 02:57:30;;;;;;;;;;;;;;;12.77;54.23;100270.94;4959895;28;122067;-65
2022/11/09 02:59:56;;;;;;;;;;;;;;;12.75;54.62;100265.00;4961622;28;98031;-65
2022/11/09 03:02:22;;;;;;;;;;;;;;;12.75;54.48;100265.00;4959630;28;108077;-65
2022/11/09 03:04:48;;;;;;;;;;;;;;;12.74;54.05;100270.69;4957649;28;128305;-66
2022/11/09 03:07:13;;;;;;;;;;;;;;;12.73;54.36;100271.75;4954042;28;127730;-66
2022/11/09 03:09:39;;;;;;;;;;;;;;;12.72;54.65;100267.47;4960334;28;117939;-66
2022/11/09 03:14:50;;;;;;;;;;;;;;;12.69;54.31;100266.16;4957176;28;99317;-65
2022/11/09 03:17:17;;;;;;;;;;;;;;;12.69;54.27;100266.16;4957329;28;127237;-66
2022/11/09 03:19:43;;;;;;;;;;;;;;;12.69;54.59;100268.03;4959762;28;99224;-65
2022/11/09 03:22:09;;;;;;;;;;;;;;;12.68;54.49;100271.81;4978509;27;99146;-66
2022/11/09 03:24:35;;;;;;;;;;;;;;;12.66;54.34;100274.81;4957381;28;117561;-65
2022/11/09 03:27:01;;;;;;;;;;;;;;;12.67;54.49;100270.22;4959038;28;127571;-65
2022/11/09 03:29:27;;;;;;;;;;;;;;;12.65;54.14;100267.78;4960290;28;117501;-66
2022/11/09 03:31:53;;;;;;;;;;;;;;;12.64;54.36;100271.59;4960304;28;126184;-65
2022/11/09 03:34:19;;;;;;;;;;;;;;;12.64;54.47;100268.88;4957351;28;128279;-65
2022/11/09 03:36:45;;;;;;;;;;;;;;;12.64;54.42;100268.88;4958945;28;126708;-65
2022/11/09 03:39:10;;;;;;;;;;;;;;;12.63;54.50;100269.97;4972509;28;116330;-66
2022/11/09 03:41:36;;;;;;;;;;;;;;;12.63;54.26;100271.88;4960223;28;127234;-66
2022/11/09 03:44:02;;;;;;;;;;;;;;;12.62;54.34;100270.28;4960970;28;128094;-66
2022/11/09 03:46:28;;;;;;;;;;;;;;;12.62;54.53;100275.69;4958168;28;127472;-65
2022/11/09 03:48:54;;;;;;;;;;;;;;;12.61;54.44;100266.75;4955699;28;118315;-66
2022/11/09 03:51:20;;;;;;;;;;;;;;;12.61;54.36;100264.03;4959177;28;129091;-66
2022/11/09 03:53:46;;;;;;;;;;;;;;;12.62;54.38;100278.38;4958323;28;127804;-65
2022/11/09 03:56:12;;;;;;;;;;;;;;;12.61;54.46;100268.66;4958896;28;126503;-66
2022/11/09 03:58:38;;;;;;;;;;;;;;;12.61;54.43;100268.66;4960455;28;115926;-66
2022/11/09 04:01:04;;;;;;;;;;;;;;;12.60;54.31;100270.53;4955683;28;127312;-66
2022/11/09 04:03:29;;;;;;;;;;;;;;;12.59;54.23;100263.53;4957459;28;127183;-66
2022/11/09 04:05:57;;;;;;;;;;;;;;;12.58;54.40;100270.03;4953553;28;126447;-65
2022/11/09 04:08:23;;;;;;;;;;;;;;;12.58;54.44;100267.34;4952077;28;98643;-66
2022/11/09 04:10:49;;;;;;;;;;;;;;;12.58;54.54;100269.25;4959305;28;126718;-66
2022/11/09 04:13:15;;;;;;;;;;;;;;;12.56;54.27;100274.91;4957870;28;127243;-65
2022/11/09 04:15:42;;;;;;;;;;;;;;;12.57;54.66;100267.59;4958262;28;127466;-65
2022/11/09 04:18:10;;;;;;;;;;;;;;;12.56;54.46;100282.22;4957005;28;116953;-66
2022/11/09 04:20:36;;;;;;;;;;;;;;;12.56;54.29;100287.63;4957303;28;115585;-66
2022/11/09 04:23:05;;;;;;;;;;;;;;;12.54;54.28;100277.09;4955879;28;129445;-65
2022/11/09 04:25:32;;;;;;;;;;;;;;;12.53;54.52;100276.28;4959300;28;126458;-65
2022/11/09 04:27:58;;;;;;;;;;;;;;;12.53;54.25;100270.88;4955463;28;106121;-66
2022/11/09 04:30:26;;;;;;;;;;;;;;;12.53;54.51;100262.75;4957302;28;108957;-66
2022/11/09 04:32:55;;;;;;;;;;;;;;;12.53;54.23;100264.66;4958425;28;98441;-65
2022/11/09 04:35:21;;;;;;;;;;;;;;;12.52;54.30;100257.66;4971215;28;97780;-66
2022/11/09 04:37:58;;;;;;;;;;;;;;;12.52;54.48;100265.75;4957829;28;117239;-65
2022/11/09 04:40:24;;;;;;;;;;;;;;;12.51;54.52;100256.84;4954800;28;125389;-65
2022/11/09 04:42:50;;;;;;;;;;;;;;;12.52;54.37;100265.75;4957521;28;126522;-65
2022/11/09 04:45:16;;;;;;;;;;;;;;;12.51;54.59;100270.38;4959653;28;126919;-65
2022/11/09 04:47:42;;;;;;;;;;;;;;;12.50;54.49;100271.47;4960668;28;110965;-65
2022/11/09 04:50:08;;;;;;;;;;;;;;;12.51;54.33;100272.25;4958150;28;128096;-66
2022/11/09 04:52:34;;;;;;;;;;;;;;;12.51;54.42;100277.66;4962463;28;98820;-66
2022/11/09 04:55:00;;;;;;;;;;;;;;;12.50;54.57;100273.38;4963703;28;127819;-65
2022/11/09 04:57:26;;;;;;;;;;;;;;;12.50;54.52;100278.78;4962468;28;97877;-66
2022/11/09 04:59:52;;;;;;;;;;;;;;;12.50;54.25;100281.47;4961124;28;128500;-65
2022/11/09 05:02:18;;;;;;;;;;;;;;;12.49;54.33;100280.63;4960314;28;129100;-65
2022/11/09 05:04:44;;;;;;;;;;;;;;;12.49;54.03;100280.63;4946000;28;127866;-64
2022/11/09 05:07:10;;;;;;;;;;;;;;;12.49;54.55;100287.94;4945591;28;117638;-66
2022/11/09 05:09:36;;;;;;;;;;;;;;;12.49;54.24;100282.53;4962891;28;128084;-65
2022/11/09 05:12:02;;;;;;;;;;;;;;;12.49;54.22;100282.53;4959453;28;98283;-66
2022/11/09 05:14:28;;;;;;;;;;;;;;;12.48;54.11;100287.16;4943693;28;119266;-65
2022/11/09 05:16:54;;;;;;;;;;;;;;;12.49;54.43;100290.66;4959438;28;118096;-66
2022/11/09 05:19:19;;;;;;;;;;;;;;;12.48;54.31;100287.16;4977253;27;127284;-65
2022/11/09 05:21:45;;;;;;;;;;;;;;;12.48;54.31;100289.84;4958194;28;127364;-66
2022/11/09 05:24:11;;;;;;;;;;;;;;;12.47;54.50;100290.94;4960515;28;126437;-66
2022/11/09 05:26:38;;;;;;;;;;;;;;;12.48;54.35;100297.16;4961384;28;117346;-65
2022/11/09 05:29:06;;;;;;;;;;;;;;;12.49;54.39;100296.06;4959785;28;121078;-65
2022/11/09 05:31:32;;;;;;;;;;;;;;;12.49;54.39;100291.47;4977122;27;98424;-65
2022/11/09 05:33:58;;;;;;;;;;;;;;;12.48;54.42;100292.56;4960020;28;127093;-65
2022/11/09 05:36:25;;;;;;;;;;;;;;;12.49;54.24;100294.16;4959840;28;98007;-65
2022/11/09 05:38:51;;;;;;;;;;;;;;;12.50;54.20;100300.41;4959338;28;98167;-65
2022/11/09 05:41:17;;;;;;;;;;;;;;;12.50;54.50;100295.00;4957163;28;98266;-65
2022/11/09 05:43:43;;;;;;;;;;;;;;;12.51;54.36;100291.19;4959100;28;98511;-65
2022/11/09 05:46:09;;;;;;;;;;;;;;;12.51;54.28;100293.88;4959696;28;98300;-65
2022/11/09 05:48:35;;;;;;;;;;;;;;;12.51;54.44;100289.28;4954894;28;98527;-66
2022/11/09 05:51:02;;;;;;;;;;;;;;;12.51;54.35;100285.78;4957637;28;127958;-65
2022/11/09 05:53:28;;;;;;;;;;;;;;;12.52;54.48;100287.38;4957422;28;114460;-65
2022/11/09 05:55:54;;;;;;;;;;;;;;;12.52;54.45;100295.50;4962747;28;100107;-65
2022/11/09 05:58:20;;;;;;;;;;;;;;;12.53;54.33;100299.81;4959736;28;101484;-65
2022/11/09 06:00:46;;;;;;;;;;;;;;;12.52;54.21;100301.72;4957997;28;122900;-65
2022/11/09 06:03:12;;;;;;;;;;;;;;;12.53;54.39;100307.91;4957671;28;127515;-65
2022/11/09 06:05:38;;;;;;;;;;;;;;;12.53;54.22;100308.72;4956425;28;116900;-65
2022/11/09 06:08:06;;;;;;;;;;;;;;;12.54;54.22;100314.97;4966464;27;128104;-65
2022/11/09 06:10:32;;;;;;;;;;;;;;;12.54;54.40;100314.97;4953371;28;103703;-65
2022/11/09 06:12:58;;;;;;;;;;;;;;;12.53;54.25;100316.84;4958631;28;120766;-65
2022/11/09 06:15:24;;;;;;;;;;;;;;;12.55;54.38;100313.06;4953867;28;118007;-65
2022/11/09 06:17:53;;;;;;;;;;;;;;;12.53;54.32;100311.44;4966452;28;98185;-66
2022/11/09 06:20:19;;;;;;;;;;;;;;;12.55;54.20;100315.75;4961767;28;110673;-66
2022/11/09 06:22:53;;;;;;;;;;;;;;;12.56;54.29;100325.47;4960112;28;124470;-66
2022/11/09 06:25:19;;;;;;;;;;;;;;;12.57;54.26;100314.38;4963488;28;97838;-66
2022/11/09 06:27:45;;;;;;;;;;;;;;;12.58;54.11;100304.38;4963794;28;124212;-66
2022/11/09 06:30:11;;;;;;;;;;;;;;;12.58;54.39;100302.50;4959610;28;104548;-66
2022/11/09 06:32:37;;;;;;;;;;;;;;;12.60;54.53;100303.00;4961197;28;128120;-66
2022/11/09 06:35:03;;;;;;;;;;;;;;;12.63;53.75;100305.13;4964187;28;98114;-66
2022/11/09 06:37:29;;;;;;;;;;;;;;;12.67;54.07;100308.88;4961085;28;115714;-66
2022/11/09 06:39:54;;;;;;;;;;;;;;;12.70;53.99;100312.94;4958753;28;129784;-66
2022/11/09 06:42:20;;;;;;;;;;;;;;;12.73;53.96;100317.75;4940181;28;128040;-66
2022/11/09 06:44:46;;;;;;;;;;;;;;;12.75;53.94;100316.38;4960867;28;116079;-65
2022/11/09 06:47:12;;;;;;;;;;;;;;;12.79;53.86;100316.63;4956975;28;129308;-66
2022/11/09 06:49:38;;;;;;;;;;;;;;;12.83;53.92;100320.34;4964931;28;127416;-66
2022/11/09 06:52:04;;;;;;;;;;;;;;;12.86;53.74;100322.50;4959629;28;125880;-66
2022/11/09 06:54:31;;;;;;;;;;;;;;;12.87;54.08;100331.41;4962621;28;98131;-66
2022/11/09 06:56:57;;;;;;;;;;;;;;;12.91;53.95;100327.03;4955769;28;99142;-66
2022/11/09 06:59:23;;;;;;;;;;;;;;;12.96;53.88;100325.09;4959219;28;117583;-66
2022/11/09 07:01:49;;;;;;;;;;;;;;;13.03;53.72;100328.25;4961814;28;127790;-66
2022/11/09 07:04:15;;;;;;;;;;;;;;;13.08;53.92;100335.50;4958975;28;117225;-66
2022/11/09 07:06:41;;;;;;;;;;;;;;;13.12;53.92;100331.16;4958788;28;98718;-66
2022/11/09 07:09:07;;;;;;;;;;;;;;;13.14;53.77;100334.38;4963458;28;128958;-66
2022/11/09 07:11:33;;;;;;;;;;;;;;;13.17;53.96;100336.53;4961255;28;119364;-66
2022/11/09 07:14:01;;;;;;;;;;;;;;;13.23;53.85;100345.41;4960587;28;117591;-66
2022/11/09 07:16:27;;;;;;;;;;;;;;;13.27;53.86;100341.84;4962241;28;99386;-66
2022/11/09 07:18:53;;;;;;;;;;;;;;;13.34;53.87;100343.41;4963055;28;98269;-66
2022/11/09 07:21:19;;;;;;;;;;;;;;;13.38;53.44;100342.53;4961217;28;126597;-66
2022/11/09 07:23:46;;;;;;;;;;;;;;;13.42;53.48;100343.56;4961265;28;100426;-66
2022/11/09 07:26:12;;;;;;;;;;;;;;;13.47;53.42;100348.09;4960554;28;98882;-66
2022/11/09 07:28:38;;;;;;;;;;;;;;;13.53;53.72;100355.09;4961005;28;127654;-66
2022/11/09 07:31:04;;;;;;;;;;;;;;;13.61;53.41;100353.66;4958635;28;97976;-66
2022/11/09 07:33:32;;;;;;;;;;;;;;;13.66;53.38;100350.84;4961096;28;114066;-66
2022/11/09 07:36:01;;;;;;;;;;;;;;;13.69;53.33;100350.28;4961389;28;98484;-66
2022/11/09 07:38:27;;;;;;;;;;;;;;;13.73;53.33;100357.53;4960705;28;109175;-66
2022/11/09 07:40:53;;;;;;;;;;;;;;;13.76;53.67;100350.75;4967663;28;121499;-66
2022/11/09 07:43:19;;;;;;;;;;;;;;;13.79;53.41;100355.56;4959420;28;116981;-66
2022/11/09 07:45:45;;;;;;;;;;;;;;;13.83;53.55;100367.41;4958105;28;129145;-66
2022/11/09 07:48:11;;;;;;;;;;;;;;;13.89;53.24;100360.03;4957828;28;128150;-66
2022/11/09 07:50:38;;;;;;;;;;;;;;;13.93;53.44;100353.75;4963445;28;97850;-66
2022/11/09 07:53:05;;;;;;;;;;;;;;;14.02;53.07;100355.81;4960023;28;97882;-66
2022/11/09 07:55:31;;;;;;;;;;;;;;;14.12;53.35;100358.38;4961577;28;99047;-66
2022/11/09 07:57:58;;;;;;;;;;;;;;;14.23;53.19;100347.09;4959586;28;126375;-66
2022/11/09 08:00:25;;;;;;;;;;;;;;;14.40;52.99;100359.31;4961416;28;122308;-66
2022/11/09 08:02:51;;;;;;;;;;;;;;;14.65;52.44;100355.41;4963597;28;98753;-65
2022/11/09 08:05:17;;;;;;;;;;;;;;;14.88;52.32;100365.31;4960780;28;100649;-66
2022/11/09 08:07:43;;;;;;;;;;;;;;;15.05;52.33;100363.91;4961439;28;128243;-66
2022/11/09 08:10:09;;;;;;;;;;;;;;;15.23;51.94;100369.28;4961154;28;127032;-66
2022/11/09 08:12:35;;;;;;;;;;;;;;;15.41;52.00;100364.06;4964392;27;118438;-66
2022/11/09 08:15:01;;;;;;;;;;;;;;;15.50;52.35;100354.09;4962558;28;125730;-66
2022/11/09 08:17:27;;;;;;;;;;;;;;;15.49;52.32;100359.84;4942130;28;128326;-66
2022/11/09 08:19:53;;;;;;;;;;;;;;;15.41;52.60;100366.78;4961320;28;126847;-66
2022/11/09 08:22:19;;;;;;;;;;;;;;;15.38;52.53;100381.78;4960320;28;97775;-66
2022/11/09 08:24:44;;;;;;;;;;;;;;;15.42;52.55;100373.81;4963301;28;126189;-66
2022/11/09 08:27:10;;;;;;;;;;;;;;;15.34;52.69;100377.25;4961621;28;127318;-66
2022/11/09 08:29:36;;;;;;;;;;;;;;;15.26;52.76;100367.09;4963243;28;124987;-66
2022/11/09 08:32:02;;;;;;;;;;;;;;;15.22;52.74;100361.44;4977973;27;116379;-66
2022/11/09 08:34:28;;;;;;;;;;;;;;;15.17;52.95;100375.13;4977708;27;127167;-66
2022/11/09 08:36:54;;;;;;;;;;;;;;;15.09;52.97;100379.34;4959449;28;127928;-66
2022/11/09 08:39:22;;;;;;;;;;;;;;;15.01;53.03;100376.47;4960979;28;118212;-66
2022/11/09 08:41:48;;;;;;;;;;;;;;;14.91;53.26;100383.72;4962470;28;97957;-65
2022/11/09 08:44:14;;;;;;;;;;;;;;;14.83;53.56;100389.81;4957924;28;127493;-66
2022/11/09 08:46:40;;;;;;;;;;;;;;;14.76;53.48;100391.31;4964756;28;128711;-66
2022/11/09 08:49:05;;;;;;;;;;;;;;;14.69;53.39;100394.38;4961596;28;126831;-66
2022/11/09 08:51:32;;;;;;;;;;;;;;;14.61;53.57;100386.94;4961514;28;117783;-66
2022/11/09 08:53:57;;;;;;;;;;;;;;;14.55;53.51;100396.25;4960967;28;99209;-65
2022/11/09 08:56:23;;;;;;;;;;;;;;;14.49;53.85;100395.53;4959411;28;127442;-66
2022/11/09 08:58:49;;;;;;;;;;;;;;;14.43;53.55;100396.69;4958609;28;107333;-65
2022/11/09 09:01:16;;;;;;;;;;;;;;;14.38;53.79;100405.72;4958806;28;119311;-66
2022/11/09 09:03:42;;;;;;;;;;;;;;;14.33;53.52;100403.06;4960542;28;99480;-66
2022/11/09 09:06:07;;;;;;;;;;;;;;;14.27;53.95;100406.94;4961421;28;98645;-66
2022/11/09 09:08:33;;;;;;;;;;;;;;;14.24;53.67;100410.25;4958950;28;126245;-66
2022/11/09 09:11:03;;;;;;;;;;;;;;;14.21;53.80;100413.53;4958505;28;117551;-65
2022/11/09 09:13:30;;;;;;;;;;;;;;;14.16;53.64;100405.47;4972747;27;123887;-66
2022/11/09 09:15:56;;;;;;;;;;;;;;;14.14;53.70;100413.09;4961288;28;98555;-66
2022/11/09 09:18:22;;;;;;;;;;;;;;;14.13;53.90;100406.84;4959794;28;127339;-65
2022/11/09 09:20:48;;;;;;;;;;;;;;;14.10;53.89;100418.28;4961589;28;115616;-66
2022/11/09 09:23:15;;;;;;;;;;;;;;;14.07;53.60;100408.03;4967381;28;110404;-66
2022/11/09 09:25:42;;;;;;;;;;;;;;;14.01;53.65;100411.91;4962560;28;98747;-66
2022/11/09 09:28:07;;;;;;;;;;;;;;;13.99;53.69;100408.69;4968539;28;100267;-66
2022/11/09 09:30:33;;;;;;;;;;;;;;;13.96;53.83;100420.09;4964041;28;117262;-66
2022/11/09 09:32:59;;;;;;;;;;;;;;;13.92;53.80;100416.38;4964683;28;128492;-66
2022/11/09 09:35:26;;;;;;;;;;;;;;;13.88;53.77;100413.44;4964152;28;98856;-66
2022/11/09 09:37:52;;;;;;;;;;;;;;;13.85;54.04;100416.72;4964697;28;112085;-66
2022/11/09 09:40:35;;;;;;;;;;;;;;;13.83;54.03;100415.38;4965964;28;97858;-67
2022/11/09 09:43:01;;;;;;;;;;;;;;;13.78;54.19;100416.25;4977930;27;98275;-67
2022/11/09 09:45:30;;;;;;;;;;;;;;;13.74;53.80;100415.22;4967162;28;108982;-66
2022/11/09 09:48:11;;;;;;;;;;;;;;;13.70;54.21;100408.78;4945209;28;97959;-67
2022/11/09 09:50:44;;;;;;;;;;;;;;;13.67;54.11;100407.44;4967963;28;117419;-67
2022/11/09 09:53:33;;;;;;;;;;;;;;;13.65;53.82;100412.34;4948616;28;98898;-67
2022/11/09 09:56:08;;;;;;;;;;;;;;;13.63;54.16;100419.94;4961534;28;110445;-67
2022/11/09 09:58:35;;;;;;;;;;;;;;;13.64;53.89;100402.63;4947258;28;126694;-66
2022/11/09 10:01:15;;;;;;;;;;;;;;;13.68;54.07;100403.66;4965984;28;98172;-67
2022/11/09 10:03:41;;;;;;;;;;;;;;;13.71;53.49;100403.06;4964096;28;98438;-66
2022/11/09 10:06:36;;;;;;;;;;;;;;;13.78;53.54;100410.84;4963019;28;126832;-67
2022/11/09 10:09:02;;;;;;;;;;;;;;;13.89;53.60;100408.81;4966530;28;97884;-67
2022/11/09 10:11:46;;;;;;;;;;;;;;;13.92;53.35;100408.25;4967209;28;97949;-67
2022/11/09 10:14:40;;;;;;;;;;;;;;;13.94;53.76;100409.53;4964629;28;128534;-67
2022/11/09 10:17:25;;;;;;;;;;;;;;;13.99;53.40;100406.78;4964491;28;99205;-66
2022/11/09 10:20:19;;;;;;;;;;;;;;;14.14;53.17;100405.75;4964313;28;103365;-66
2022/11/09 10:23:07;;;;;;;;;;;;;;;14.43;52.66;100404.81;4960992;28;113774;-66
2022/11/09 10:25:36;;;;;;;;;;;;;;;14.76;52.64;100396.72;4955513;28;98959;-66
2022/11/09 10:28:07;;;;;;;;;;;;;;;14.88;52.51;100399.78;4963788;28;98265;-66
2022/11/09 10:30:33;;;;;;;;;;;;;;;14.97;52.49;100393.38;4955445;28;126803;-66
2022/11/09 10:33:10;;;;;;;;;;;;;;;15.02;52.64;100399.84;4963404;28;98118;-66
2022/11/09 10:35:40;;;;;;;;;;;;;;;15.05;52.54;100393.78;4943433;28;123066;-66
2022/11/09 10:38:07;;;;;;;;;;;;;;;15.05;52.56;100404.63;4960396;28;98355;-66
2022/11/09 10:40:40;;;;;;;;;;;;;;;15.00;53.02;100391.16;4942055;28;127711;-66
2022/11/09 10:43:09;;;;;;;;;;;;;;;14.93;53.24;100392.38;4946491;27;121280;-65
2022/11/09 10:45:36;;;;;;;;;;;;;;;14.90;53.34;100389.44;4960296;28;124917;-65
2022/11/09 10:48:02;;;;;;;;;;;;;;;14.85;53.01;100384.88;4960767;28;98782;-66
2022/11/09 10:50:38;;;;;;;;;;;;;;;14.82;53.49;100388.22;4961240;28;98133;-65
2022/11/09 10:53:17;;;;;;;;;;;;;;;14.79;53.11;100385.28;4954425;28;97796;-66
2022/11/09 10:55:56;;;;;;;;;;;;;;;14.76;53.42;100373.13;4954951;28;98049;-66
2022/11/09 10:58:38;;;;;;;;;;;;;;;14.75;53.09;100371.50;4963251;28;119294;-66
2022/11/09 11:01:18;;;;;;;;;;;;;;;14.76;53.39;100369.59;4960818;28;98475;-66
2022/11/09 11:03:44;;;;;;;;;;;;;;;14.76;53.26;100366.88;4956107;28;110862;-65
2022/11/09 11:06:22;;;;;;;;;;;;;;;14.73;53.23;100363.66;4946535;28;108450;-65
2022/11/09 11:08:57;;;;;;;;;;;;;;;14.77;53.05;100374.72;4960394;28;99234;-66
2022/11/09 11:11:24;;;;;;;;;;;;;;;14.80;53.05;100368.69;4957888;28;100495;-66
2022/11/09 11:13:50;;;;;;;;;;;;;;;14.90;53.12;100357.69;4960626;28;98271;-66
2022/11/09 11:16:22;;;;;;;;;;;;;;;15.11;52.82;100365.47;4954915;28;98805;-64
2022/11/09 11:18:48;;;;;;;;;;;;;;;15.26;52.66;100359.75;4961373;28;98893;-66
2022/11/09 11:21:16;;;;;;;;;;;;;;;15.41;52.51;100364.06;4960642;28;126526;-66
2022/11/09 11:23:42;;;;;;;;;;;;;;;15.50;52.36;100359.53;4961539;28;97888;-66
2022/11/09 11:26:30;;;;;;;;;;;;;;;15.58;52.45;100356.09;4962249;28;98870;-66
2022/11/09 11:29:01;;;;;;;;;;;;;;;15.67;52.54;100350.78;4960055;28;98466;-65
2022/11/09 11:31:26;;;;;;;;;;;;;;;15.80;52.45;100346.44;4958839;28;97965;-65
2022/11/09 11:33:52;;;;;;;;;;;;;;;15.94;52.41;100347.22;4959702;28;118377;-66
2022/11/09 11:36:24;;;;;;;;;;;;;;;15.97;52.35;100343.91;4958173;28;126280;-66
2022/11/09 11:39:04;;;;;;;;;;;;;;;15.90;52.45;100348.94;4957983;28;103786;-66
2022/11/09 11:41:59;;;;;;;;;;;;;;;15.85;52.73;100344.44;4961951;28;99016;-66
2022/11/09 11:44:51;;;;;;;;;;;;;;;15.86;52.60;100345.22;4939677;28;98549;-65
2022/11/09 11:47:26;;;;;;;;;;;;;;;15.89;52.67;100348.16;4964134;28;127577;-66
2022/11/09 11:50:10;;;;;;;;;;;;;;;15.95;52.77;100346.09;4961274;28;128382;-66
2022/11/09 11:52:58;;;;;;;;;;;;;;;15.98;52.60;100341.97;4956386;28;97956;-65
2022/11/09 11:55:50;;;;;;;;;;;;;;;16.01;52.57;100336.75;4958319;28;98061;-66
2022/11/09 11:58:34;;;;;;;;;;;;;;;16.11;52.48;100333.81;4959373;28;128368;-65
2022/11/09 12:01:19;;;;;;;;;;;;;;;16.23;52.34;100324.28;4960711;28;128296;-65
2022/11/09 12:04:29;;;;;;;;;;;;;;;16.32;52.35;100323.25;4946711;28;98017;-65
2022/11/09 12:07:06;;;;;;;;;;;;;;;16.36;52.42;100324.22;4960761;28;97957;-66
2022/11/09 12:09:47;;;;;;;;;;;;;;;16.39;52.47;100328.25;4962198;28;98604;-66
2022/11/09 12:12:24;;;;;;;;;;;;;;;16.45;52.47;100329.72;4959290;28;98495;-66
2022/11/09 12:15:12;;;;;;;;;;;;;;;16.49;52.43;100327.19;4943708;28;127315;-65
2022/11/09 12:18:01;;;;;;;;;;;;;;;16.50;52.48;100331.50;4964162;28;115680;-66
2022/11/09 12:20:46;;;;;;;;;;;;;;;16.49;52.54;100328.00;4951642;28;98332;-65
2022/11/09 12:23:30;;;;;;;;;;;;;;;16.53;52.70;100326.25;4960887;28;98801;-65
2022/11/09 12:26:14;;;;;;;;;;;;;;;16.63;52.70;100317.03;4957084;28;97836;-65
2022/11/09 12:29:22;;;;;;;;;;;;;;;16.69;52.69;100315.78;4978981;27;98337;-65
2022/11/09 12:32:11;;;;;;;;;;;;;;;16.74;52.65;100320.31;4958708;28;99095;-65
2022/11/09 12:35:07;;;;;;;;;;;;;;;16.73;52.69;100319.53;4957170;28;120688;-65
2022/11/09 12:37:36;;;;;;;;;;;;;;;16.71;52.96;100327.19;4963707;28;98441;-66
2022/11/09 12:40:11;;;;;;;;;;;;;;;16.71;52.96;100329.91;4945583;28;102096;-65
2022/11/09 12:43:01;;;;;;;;;;;;;;;16.72;52.92;100328.78;4960240;28;126143;-65
2022/11/09 12:45:35;;;;;;;;;;;;;;;16.70;53.08;100322.81;4957331;28;98792;-65